Time;durP1;ratioP1;P1;durP2;ratioP2;P2;SDS_P1;SDS_P2;PMS_P1;PMS_P2;Temp;Humidity;BMP_temperature;BMP_pressure;BME280_temperature;BME280_humidity;BME280_pressure;Samples;Min_cycle;Max_cycle;Signal;HPM_P1;HPM_P2
2022/06/10 00:03:51;;;;;;;;;;;;;;;22.21;46.40;96153.78;10498388;28;1839;-60
2022/06/10 00:08:51;;;;;;;;;;;;;;;22.21;46.28;96159.06;10491378;28;1774;-61
2022/06/10 00:13:51;;;;;;;;;;;;;;;22.20;46.04;96153.00;10512981;28;1808;-62
2022/06/10 00:18:53;;;;;;;;;;;;;;;22.19;46.27;96156.72;10485067;28;1973;-61
2022/06/10 00:23:53;;;;;;;;;;;;;;;22.18;46.27;96149.03;10494060;28;1899;-61
2022/06/10 00:28:54;;;;;;;;;;;;;;;22.17;46.24;96158.84;10474658;28;1792;-60
2022/06/10 00:33:55;;;;;;;;;;;;;;;22.18;46.55;96162.25;10480351;28;1824;-59
2022/06/10 00:38:59;;;;;;;;;;;;;;;22.17;46.49;96160.69;10478838;28;2094;-61
2022/06/10 00:43:59;;;;;;;;;;;;;;;22.17;46.14;96164.13;10509292;28;1924;-60
2022/06/10 00:48:59;;;;;;;;;;;;;;;22.16;46.19;96165.16;10470893;28;1854;-61
2022/06/10 00:54:13;;;;;;;;;;;;;;;22.15;46.06;96158.31;10491770;28;1983;-58
2022/06/10 00:59:16;;;;;;;;;;;;;;;22.14;46.19;96169.94;10471640;28;2005;-60
2022/06/10 01:04:17;;;;;;;;;;;;;;;22.14;46.23;96159.38;10460937;28;1879;-59
2022/06/10 01:09:17;;;;;;;;;;;;;;;22.02;46.48;96161.56;10463920;28;1949;-58
2022/06/10 01:14:18;;;;;;;;;;;;;;;21.87;46.33;96153.72;10477915;28;1940;-57
2022/06/10 01:19:30;;;;;;;;;;;;;;;21.79;46.58;96162.16;10468442;28;2027;-59
2022/06/10 01:24:46;;;;;;;;;;;;;;;21.73;46.34;96168.53;10485455;28;1971;-58
2022/06/10 01:30:06;;;;;;;;;;;;;;;21.63;46.35;96168.56;10505363;28;1886;-57
2022/06/10 01:35:20;;;;;;;;;;;;;;;21.59;46.48;96170.97;10481435;28;2042;-57
2022/06/10 01:40:26;;;;;;;;;;;;;;;21.51;46.18;96170.72;10485205;28;1951;-61
2022/06/10 01:45:30;;;;;;;;;;;;;;;21.49;46.06;96172.84;10467776;28;1954;-59
2022/06/10 01:50:50;;;;;;;;;;;;;;;21.47;46.02;96180.22;10489177;28;1912;-58
2022/06/10 01:56:12;;;;;;;;;;;;;;;21.44;46.29;96186.03;10485958;28;1967;-56
2022/06/10 02:01:15;;;;;;;;;;;;;;;21.40;45.68;96188.41;10504536;28;1914;-59
2022/06/10 02:06:20;;;;;;;;;;;;;;;21.40;45.87;96195.53;10458056;28;1877;-59
2022/06/10 02:11:21;;;;;;;;;;;;;;;21.39;46.00;96197.38;10468544;28;1840;-57
2022/06/10 02:16:23;;;;;;;;;;;;;;;21.36;45.70;96199.78;10454950;28;2124;-58
2022/06/10 02:21:25;;;;;;;;;;;;;;;21.32;45.90;96206.63;10492630;28;1783;-59
2022/06/10 02:26:26;;;;;;;;;;;;;;;21.30;45.94;96212.19;10455661;28;1877;-57
2022/06/10 02:31:28;;;;;;;;;;;;;;;21.30;45.84;96224.56;10470439;28;1836;-58
2022/06/10 02:36:47;;;;;;;;;;;;;;;21.29;45.71;96230.91;10496720;28;1969;-58
2022/06/10 02:41:56;;;;;;;;;;;;;;;21.24;45.84;96217.72;10451051;28;1811;-59
2022/06/10 02:47:01;;;;;;;;;;;;;;;21.21;45.75;96228.78;10454542;28;2502;-59
2022/06/10 02:52:01;;;;;;;;;;;;;;;21.22;45.75;96235.66;10474248;28;1849;-60
2022/06/10 02:57:10;;;;;;;;;;;;;;;21.18;45.75;96240.69;10481401;28;1909;-61
2022/06/10 03:02:17;;;;;;;;;;;;;;;21.16;45.53;96237.53;10486592;28;1799;-62
2022/06/10 03:07:21;;;;;;;;;;;;;;;21.15;45.75;96245.66;10481710;28;1843;-58
2022/06/10 03:12:34;;;;;;;;;;;;;;;21.12;45.44;96247.00;10487952;28;1768;-61
2022/06/10 03:17:48;;;;;;;;;;;;;;;21.11;45.70;96249.91;10466344;28;2001;-60
2022/06/10 03:22:48;;;;;;;;;;;;;;;21.09;45.46;96258.06;10502715;28;1843;-59
2022/06/10 03:28:08;;;;;;;;;;;;;;;21.06;45.39;96259.38;10496082;28;1769;-60
2022/06/10 03:33:27;;;;;;;;;;;;;;;21.03;45.57;96270.47;10480819;28;1875;-57
2022/06/10 03:38:28;;;;;;;;;;;;;;;21.04;45.56;96266.75;10505629;28;1985;-59
2022/06/10 03:43:31;;;;;;;;;;;;;;;21.00;45.35;96276.22;10475577;28;1833;-58
2022/06/10 03:48:33;;;;;;;;;;;;;;;20.98;45.29;96278.34;10490053;28;1789;-60
2022/06/10 03:53:33;;;;;;;;;;;;;;;20.99;45.22;96274.66;10489723;28;1816;-60
2022/06/10 03:58:34;;;;;;;;;;;;;;;20.97;45.51;96270.69;10487287;28;1906;-58
2022/06/10 04:03:34;;;;;;;;;;;;;;;20.96;45.42;96285.72;10488470;28;1867;-62
2022/06/10 04:08:35;;;;;;;;;;;;;;;20.98;45.03;96298.63;10464459;28;1815;-61
2022/06/10 04:13:35;;;;;;;;;;;;;;;20.94;45.37;96298.38;10468108;28;1800;-59
2022/06/10 04:18:36;;;;;;;;;;;;;;;20.92;45.31;96304.94;10470791;28;1967;-59
2022/06/10 04:23:36;;;;;;;;;;;;;;;20.92;45.05;96305.75;10471397;28;1808;-57
2022/06/10 04:28:37;;;;;;;;;;;;;;;20.93;45.25;96301.28;10470257;28;1794;-58
2022/06/10 04:33:37;;;;;;;;;;;;;;;20.94;45.09;96308.09;10460254;28;1980;-60
2022/06/10 04:38:38;;;;;;;;;;;;;;;20.95;45.07;96307.88;10461641;28;1999;-60
2022/06/10 04:43:38;;;;;;;;;;;;;;;20.95;45.28;96315.78;10457311;28;1778;-60
2022/06/10 04:48:40;;;;;;;;;;;;;;;20.97;45.24;96311.03;10457324;28;1762;-59
2022/06/10 04:53:40;;;;;;;;;;;;;;;20.94;45.26;96319.44;10476215;28;1895;-57
2022/06/10 04:58:41;;;;;;;;;;;;;;;20.94;45.32;96324.72;10490891;28;1906;-58
2022/06/10 05:03:42;;;;;;;;;;;;;;;20.94;45.31;96322.09;10477643;28;1832;-57
2022/06/10 05:08:42;;;;;;;;;;;;;;;20.94;45.02;96324.72;10451690;28;1792;-60
2022/06/10 05:13:42;;;;;;;;;;;;;;;20.93;45.29;96328.41;10472695;28;1801;-58
2022/06/10 05:18:43;;;;;;;;;;;;;;;20.92;45.11;96326.81;10472045;28;1971;-59
2022/06/10 05:23:45;;;;;;;;;;;;;;;20.92;45.18;96324.19;10477288;28;1924;-60
2022/06/10 05:28:46;;;;;;;;;;;;;;;20.95;45.34;96346.59;10469768;28;1896;-59
2022/06/10 05:39:05;;;;;;;;;;;;;;;20.87;45.30;96347.91;10491677;28;1985;-58
2022/06/10 05:44:06;;;;;;;;;;;;;;;20.86;45.38;96348.16;10479945;28;1867;-59
2022/06/10 05:49:06;;;;;;;;;;;;;;;20.89;45.44;96348.44;10485790;28;1809;-59
2022/06/10 05:54:07;;;;;;;;;;;;;;;20.89;45.26;96352.91;10470873;28;1752;-59
2022/06/10 05:59:07;;;;;;;;;;;;;;;20.91;45.25;96358.72;10462318;28;1917;-62
2022/06/10 06:04:07;;;;;;;;;;;;;;;20.91;45.43;96361.34;10470245;28;1871;-60
2022/06/10 06:09:09;;;;;;;;;;;;;;;20.89;45.27;96358.97;10490216;28;1835;-61
2022/06/10 06:14:10;;;;;;;;;;;;;;;20.89;45.34;96364.25;10467039;28;1776;-60
2022/06/10 06:19:10;;;;;;;;;;;;;;;20.93;45.81;96365.31;10459075;28;1993;-56
2022/06/10 06:24:11;;;;;;;;;;;;;;;20.99;46.22;96364.28;10474903;28;1965;-59
2022/06/10 06:29:11;;;;;;;;;;;;;;;21.00;46.56;96371.09;10457271;28;1839;-60
2022/06/10 06:34:12;;;;;;;;;;;;;;;21.05;46.46;96371.16;10468669;28;1718;-59
2022/06/10 06:39:14;;;;;;;;;;;;;;;21.08;46.49;96371.69;10456842;28;1959;-58
2022/06/10 06:44:15;;;;;;;;;;;;;;;21.10;46.66;96380.13;10481362;28;1831;-60
2022/06/10 06:49:17;;;;;;;;;;;;;;;21.04;46.51;96382.75;10458400;28;1852;-61
2022/06/10 06:54:19;;;;;;;;;;;;;;;21.05;46.42;96392.25;10467257;28;1789;-59
2022/06/10 06:59:19;;;;;;;;;;;;;;;21.12;46.49;96393.84;10458775;28;1992;-60
2022/06/10 07:04:20;;;;;;;;;;;;;;;21.12;46.23;96399.91;10464751;28;1780;-61
2022/06/10 07:09:21;;;;;;;;;;;;;;;21.11;46.22;96398.31;10464806;28;1851;-60
2022/06/10 07:14:22;;;;;;;;;;;;;;;21.12;46.29;96396.47;10493294;28;1865;-60
2022/06/10 07:19:22;;;;;;;;;;;;;;;21.12;46.29;96393.84;10495727;28;1913;-59
2022/06/10 07:24:23;;;;;;;;;;;;;;;21.14;46.25;96397.00;10477917;28;1851;-59
2022/06/10 07:29:23;;;;;;;;;;;;;;;21.13;46.30;96400.69;10473502;28;1768;-60
2022/06/10 07:34:23;;;;;;;;;;;;;;;21.14;46.34;96399.63;10461328;28;1761;-60
2022/06/10 07:39:24;;;;;;;;;;;;;;;21.13;46.24;96398.03;10460576;28;1912;-58
2022/06/10 07:44:35;;;;;;;;;;;;;;;21.12;46.21;96397.28;10459644;28;1803;-59
2022/06/10 07:49:36;;;;;;;;;;;;;;;21.16;46.50;96393.06;10462299;28;1769;-59
2022/06/10 07:54:37;;;;;;;;;;;;;;;21.21;46.31;96400.97;10462722;28;1789;-60
2022/06/10 07:59:40;;;;;;;;;;;;;;;21.20;46.36;96401.22;10476727;28;1922;-59
2022/06/10 08:04:40;;;;;;;;;;;;;;;21.19;46.41;96400.44;10474651;28;1895;-57
2022/06/10 08:09:40;;;;;;;;;;;;;;;21.24;46.37;96411.00;10454111;28;1755;-56
2022/06/10 08:14:41;;;;;;;;;;;;;;;21.31;46.18;96405.47;10478885;28;1834;-58
2022/06/10 08:19:41;;;;;;;;;;;;;;;21.34;46.38;96404.94;10469049;28;1914;-59
2022/06/10 08:24:41;;;;;;;;;;;;;;;21.35;46.30;96409.94;10472418;28;2142;-58
2022/06/10 08:29:42;;;;;;;;;;;;;;;21.38;46.12;96403.34;10477087;28;1851;-59
2022/06/10 08:34:42;;;;;;;;;;;;;;;21.39;46.31;96410.22;10471890;28;1832;-60
2022/06/10 08:39:42;;;;;;;;;;;;;;;21.43;46.24;96409.41;10472352;28;1977;-59
2022/06/10 08:44:49;;;;;;;;;;;;;;;21.47;46.06;96409.72;10474572;28;1858;-60
2022/06/10 08:50:08;;;;;;;;;;;;;;;21.48;46.23;96411.28;10474514;28;1850;-60
2022/06/10 08:55:25;;;;;;;;;;;;;;;21.50;45.90;96409.16;10485430;28;1910;-58
2022/06/10 09:00:30;;;;;;;;;;;;;;;21.53;46.17;96416.56;10465306;28;1991;-58
2022/06/10 09:05:33;;;;;;;;;;;;;;;21.54;46.05;96411.03;10449020;28;1863;-59
2022/06/10 09:10:43;;;;;;;;;;;;;;;21.56;45.95;96402.84;10481986;28;1856;-58
2022/06/10 09:15:51;;;;;;;;;;;;;;;21.61;45.63;96416.84;10473725;28;1902;-59
2022/06/10 09:21:27;;;;;;;;;;;;;;;21.65;45.95;96415.25;10468424;28;1805;-60
2022/06/10 09:26:40;;;;;;;;;;;;;;;21.67;45.78;96414.97;10397340;28;1891;-56
2022/06/10 09:32:01;;;;;;;;;;;;;;;21.67;45.72;96412.34;10467050;28;1742;-59
2022/06/10 09:37:20;;;;;;;;;;;;;;;21.69;45.79;96410.22;10471598;28;1918;-57
2022/06/10 09:42:36;;;;;;;;;;;;;;;21.71;46.11;96405.47;10469883;28;1946;-60
2022/06/10 09:47:45;;;;;;;;;;;;;;;21.74;46.01;96415.53;10453893;28;1760;-61
2022/06/10 09:53:06;;;;;;;;;;;;;;;21.76;46.21;96413.41;10433182;28;1795;-62
2022/06/10 09:58:18;;;;;;;;;;;;;;;21.77;46.24;96409.69;10453619;28;2139;-61
2022/06/10 10:03:28;;;;;;;;;;;;;;;21.76;45.96;96405.50;10480455;28;1880;-62
2022/06/10 10:08:32;;;;;;;;;;;;;;;21.80;45.73;96398.63;10456354;28;1853;-59
2022/06/10 10:14:02;;;;;;;;;;;;;;;21.69;45.49;96399.69;10480540;28;1829;-58
2022/06/10 10:19:20;;;;;;;;;;;;;;;21.57;44.69;96385.97;10462105;28;1969;-59
2022/06/10 10:24:22;;;;;;;;;;;;;;;21.52;44.88;96385.94;10471138;28;1805;-58
2022/06/10 10:29:26;;;;;;;;;;;;;;;21.65;45.47;96394.16;10483474;28;1958;-55
2022/06/10 10:34:27;;;;;;;;;;;;;;;21.70;45.43;96396.00;10478945;28;1837;-56
2022/06/10 10:39:35;;;;;;;;;;;;;;;21.70;45.06;96396.00;10465059;28;1914;-54
2022/06/10 10:44:36;;;;;;;;;;;;;;;21.75;45.25;96393.34;10475090;28;1839;-59
2022/06/10 10:49:36;;;;;;;;;;;;;;;21.55;44.87;96398.63;10446861;28;1799;-57
2022/06/10 10:54:36;;;;;;;;;;;;;;;21.49;44.40;96397.03;10457470;28;1817;-59
2022/06/10 10:59:37;;;;;;;;;;;;;;;21.56;44.98;96387.00;10467326;28;1911;-57
2022/06/10 11:04:40;;;;;;;;;;;;;;;21.66;44.87;96389.63;10475987;28;1722;-57
2022/06/10 11:10:01;;;;;;;;;;;;;;;21.51;44.50;96389.66;10460185;28;1815;-57
2022/06/10 11:15:04;;;;;;;;;;;;;;;21.57;44.75;96383.31;10454159;28;1966;-56
2022/06/10 11:20:27;;;;;;;;;;;;;;;21.62;44.80;96393.84;10479433;28;2108;-57
2022/06/10 11:25:28;;;;;;;;;;;;;;;21.60;44.47;96391.50;10450084;28;1816;-58
2022/06/10 11:30:33;;;;;;;;;;;;;;;21.58;44.73;96376.97;10453970;28;1908;-59
2022/06/10 11:35:37;;;;;;;;;;;;;;;21.68;44.96;96376.97;10484569;28;1967;-58
2022/06/10 11:40:38;;;;;;;;;;;;;;;21.73;45.08;96367.22;10475527;28;1860;-58
2022/06/10 11:46:05;;;;;;;;;;;;;;;21.77;45.02;96370.91;10461220;28;1889;-58
2022/06/10 11:51:08;;;;;;;;;;;;;;;21.81;45.43;96371.16;10459535;28;1863;-60
2022/06/10 12:01:33;;;;;;;;;;;;;;;21.82;45.50;96357.72;10487190;28;1902;-58
2022/06/10 12:06:39;;;;;;;;;;;;;;;21.84;45.54;96352.97;10478323;28;1776;-57
2022/06/10 12:11:42;;;;;;;;;;;;;;;21.87;45.71;96341.09;10461741;28;1853;-56
2022/06/10 12:17:03;;;;;;;;;;;;;;;21.90;45.93;96337.94;10451409;28;2150;-55
2022/06/10 12:22:04;;;;;;;;;;;;;;;21.91;45.95;96339.50;10455690;28;2174;-59
2022/06/10 12:27:06;;;;;;;;;;;;;;;21.94;45.78;96338.97;10474969;28;1868;-59
2022/06/10 12:32:10;;;;;;;;;;;;;;;21.94;46.33;96341.63;10467341;28;1584;-56
2022/06/10 12:37:34;;;;;;;;;;;;;;;21.96;46.26;96333.41;10449429;28;1921;-55
2022/06/10 12:42:37;;;;;;;;;;;;;;;21.93;46.13;96340.03;10456207;28;1802;-58
2022/06/10 12:47:38;;;;;;;;;;;;;;;21.97;46.19;96333.16;10470489;28;1923;-59
2022/06/10 12:52:58;;;;;;;;;;;;;;;22.01;46.21;96333.41;10458460;28;1819;-58
2022/06/10 12:57:59;;;;;;;;;;;;;;;22.00;46.04;96327.34;10475218;28;1902;-55
2022/06/10 13:03:11;;;;;;;;;;;;;;;22.00;46.42;96324.72;10455450;28;1829;-56
2022/06/10 13:08:30;;;;;;;;;;;;;;;22.02;46.03;96313.88;10489932;28;1880;-58
2022/06/10 13:13:31;;;;;;;;;;;;;;;22.03;46.02;96321.50;10490162;28;2205;-57
2022/06/10 13:18:33;;;;;;;;;;;;;;;22.01;46.44;96318.34;10507598;28;1993;-57
2022/06/10 13:23:33;;;;;;;;;;;;;;;22.03;46.33;96312.81;10486039;28;1859;-60
2022/06/10 13:28:40;;;;;;;;;;;;;;;22.02;46.85;96309.38;10507413;28;1889;-60
2022/06/10 13:33:54;;;;;;;;;;;;;;;22.05;46.73;96308.84;10482808;28;1794;-63
2022/06/10 13:38:55;;;;;;;;;;;;;;;22.06;46.61;96310.44;10458576;28;1922;-54
2022/06/10 13:43:56;;;;;;;;;;;;;;;22.08;46.61;96310.94;10471832;28;2021;-57
2022/06/10 13:49:45;;;;;;;;;;;;;;;22.08;46.69;96305.66;10485862;28;1650;-55
2022/06/10 13:54:45;;;;;;;;;;;;;;;22.08;46.81;96303.03;10463109;28;1828;-56
2022/06/10 13:59:58;;;;;;;;;;;;;;;22.06;46.86;96302.50;10488158;28;1965;-57
2022/06/10 14:05:01;;;;;;;;;;;;;;;22.09;46.88;96299.31;10469879;28;1766;-59
2022/06/10 14:10:14;;;;;;;;;;;;;;;22.10;46.92;96298.25;10463102;28;1869;-60
2022/06/10 14:15:15;;;;;;;;;;;;;;;22.11;47.21;96299.88;10490754;28;1977;-58
2022/06/10 14:20:16;;;;;;;;;;;;;;;22.10;47.10;96303.53;10471579;28;1824;-57
2022/06/10 14:25:20;;;;;;;;;;;;;;;22.10;47.38;96308.81;10441397;28;1866;-59
2022/06/10 14:30:22;;;;;;;;;;;;;;;22.11;47.30;96302.50;10468690;28;1849;-59
2022/06/10 14:35:33;;;;;;;;;;;;;;;22.10;47.18;96302.75;10461860;28;1988;-58
2022/06/10 14:40:33;;;;;;;;;;;;;;;22.10;47.28;96300.09;10489039;28;1814;-58
2022/06/10 14:45:38;;;;;;;;;;;;;;;22.06;47.27;96299.06;10490426;28;1935;-58
2022/06/10 14:50:40;;;;;;;;;;;;;;;22.07;47.13;96296.16;10471847;28;1817;-61
2022/06/10 14:55:42;;;;;;;;;;;;;;;22.09;46.72;96294.03;10472961;28;1967;-60
2022/06/10 15:00:43;;;;;;;;;;;;;;;22.11;47.16;96289.31;10499217;28;1877;-57
2022/06/10 15:11:02;;;;;;;;;;;;;;;22.10;47.28;96279.00;10487341;28;1867;-60
2022/06/10 15:16:03;;;;;;;;;;;;;;;22.09;46.96;96277.41;10448421;28;1913;-59
2022/06/10 15:21:06;;;;;;;;;;;;;;;22.10;47.19;96279.78;10488877;28;1812;-59
2022/06/10 15:26:08;;;;;;;;;;;;;;;22.09;47.09;96272.16;10466549;28;1815;-58
2022/06/10 15:31:09;;;;;;;;;;;;;;;22.07;47.09;96267.09;10436761;28;1932;-59
2022/06/10 15:41:37;;;;;;;;;;;;;;;22.08;47.23;96268.72;10461220;28;1919;-60
2022/06/10 15:46:41;;;;;;;;;;;;;;;22.08;47.44;96276.63;10457427;28;1928;-60
2022/06/10 15:51:43;;;;;;;;;;;;;;;22.10;47.44;96265.78;10490449;28;1812;-58
2022/06/10 16:02:03;;;;;;;;;;;;;;;22.08;47.23;96258.16;10479067;28;1746;-61
2022/06/10 16:07:04;;;;;;;;;;;;;;;22.07;47.52;96259.19;10439236;28;1960;-61
2022/06/10 16:17:25;;;;;;;;;;;;;;;22.03;47.55;96244.94;10493978;28;1906;-63
2022/06/10 16:22:26;;;;;;;;;;;;;;;22.07;47.75;96253.91;10485704;28;2606;-60
2022/06/10 16:27:26;;;;;;;;;;;;;;;22.10;47.90;96255.22;10492990;28;1753;-56
2022/06/10 16:32:26;;;;;;;;;;;;;;;22.13;48.32;96260.78;10459632;28;1823;-58
2022/06/10 16:37:26;;;;;;;;;;;;;;;22.17;48.38;96263.66;10464265;28;1924;-60
2022/06/10 16:42:27;;;;;;;;;;;;;;;22.17;48.29;96251.25;10488310;28;1819;-58
2022/06/10 16:47:28;;;;;;;;;;;;;;;22.20;48.36;96241.97;10461091;28;1861;-57
2022/06/10 16:52:30;;;;;;;;;;;;;;;22.21;48.68;96252.28;10461863;28;1882;-62
2022/06/10 16:57:35;;;;;;;;;;;;;;;22.21;48.94;96247.00;10468260;28;1922;-59
2022/06/10 17:02:35;;;;;;;;;;;;;;;22.22;49.13;96251.22;10470584;28;1530;-63
2022/06/10 17:07:35;;;;;;;;;;;;;;;22.22;49.07;96253.84;10436000;28;1890;-59
2022/06/10 17:12:37;;;;;;;;;;;;;;;22.23;49.11;96246.72;10455492;28;1819;-59
2022/06/10 17:17:38;;;;;;;;;;;;;;;22.24;50.61;96245.66;10455978;28;1969;-60
2022/06/10 17:22:39;;;;;;;;;;;;;;;22.21;50.54;96248.84;10480181;28;1819;-60
2022/06/10 17:27:39;;;;;;;;;;;;;;;22.24;52.00;96253.56;10471696;28;1836;-56
2022/06/10 17:32:40;;;;;;;;;;;;;;;22.25;51.39;96253.31;10480626;28;1805;-60
2022/06/10 17:37:40;;;;;;;;;;;;;;;22.25;50.80;96249.88;10467703;28;1981;-61
2022/06/10 17:42:41;;;;;;;;;;;;;;;22.25;50.36;96247.25;10456172;28;2213;-60
2022/06/10 17:47:42;;;;;;;;;;;;;;;22.23;49.99;96260.72;10454054;28;1882;-61
2022/06/10 17:52:43;;;;;;;;;;;;;;;22.22;51.84;96261.78;10472359;28;1885;-62
2022/06/10 17:57:47;;;;;;;;;;;;;;;22.24;52.00;96259.66;10471790;28;1931;-62
2022/06/10 18:02:57;;;;;;;;;;;;;;;22.25;51.49;96266.53;10461998;28;1859;-60
2022/06/10 18:07:58;;;;;;;;;;;;;;;22.23;51.77;96263.38;10453936;28;1752;-61
2022/06/10 18:18:21;;;;;;;;;;;;;;;22.23;51.98;96268.66;10480112;28;1902;-60
2022/06/10 18:23:27;;;;;;;;;;;;;;;22.23;52.34;96263.38;10441107;28;1809;-61
2022/06/10 18:28:27;;;;;;;;;;;;;;;22.25;51.97;96263.88;10482826;28;1707;-57
2022/06/10 18:33:32;;;;;;;;;;;;;;;22.26;52.25;96260.16;10469648;28;1818;-59
2022/06/10 18:38:32;;;;;;;;;;;;;;;22.28;51.30;96270.44;10492811;28;1918;-58
2022/06/10 18:43:33;;;;;;;;;;;;;;;22.28;50.61;96263.31;10487549;28;1492;-56
2022/06/10 18:48:35;;;;;;;;;;;;;;;22.29;50.61;96277.31;10489042;28;1452;-58
2022/06/10 18:53:35;;;;;;;;;;;;;;;22.28;50.56;96276.53;10460189;28;1459;-59
2022/06/10 18:58:36;;;;;;;;;;;;;;;22.29;50.42;96286.06;10459872;28;1910;-56
2022/06/10 19:03:38;;;;;;;;;;;;;;;22.29;49.92;96288.69;10455808;28;1509;-56
2022/06/10 19:08:39;;;;;;;;;;;;;;;22.29;50.14;96291.34;10461089;28;1397;-60
2022/06/10 19:13:40;;;;;;;;;;;;;;;22.30;49.97;96305.31;10481359;28;1583;-56
2022/06/10 19:18:41;;;;;;;;;;;;;;;22.30;49.88;96305.31;10492036;28;1977;-57
2022/06/10 19:23:43;;;;;;;;;;;;;;;22.28;49.75;96308.22;10474040;28;1501;-57
2022/06/10 19:28:43;;;;;;;;;;;;;;;22.29;49.95;96312.47;10498226;28;1460;-58
2022/06/10 19:33:46;;;;;;;;;;;;;;;22.29;49.90;96320.38;10484399;28;1463;-59
2022/06/10 19:38:47;;;;;;;;;;;;;;;22.28;49.63;96324.06;10460208;28;2121;-59
2022/06/10 19:49:06;;;;;;;;;;;;;;;22.28;49.74;96326.72;10471522;28;3250;-61
2022/06/10 19:54:07;;;;;;;;;;;;;;;22.29;50.93;96330.94;10464085;28;2143;-60
2022/06/10 19:59:07;;;;;;;;;;;;;;;22.29;50.63;96330.94;10494949;28;2143;-61
2022/06/10 20:04:28;;;;;;;;;;;;;;;22.31;49.71;96336.75;10481616;28;1759;-59
2022/06/10 20:09:33;;;;;;;;;;;;;;;22.32;49.92;96340.97;10452834;28;1890;-59
2022/06/10 20:14:33;;;;;;;;;;;;;;;22.34;49.26;96338.06;10479775;28;1718;-60
2022/06/10 20:19:33;;;;;;;;;;;;;;;22.36;49.21;96338.59;10470048;28;1969;-59
2022/06/10 20:24:34;;;;;;;;;;;;;;;22.37;49.15;96335.66;10494459;28;1882;-60
2022/06/10 20:29:35;;;;;;;;;;;;;;;22.37;49.02;96332.22;10479939;28;1790;-58
2022/06/10 20:34:36;;;;;;;;;;;;;;;22.37;48.88;96338.31;10476586;28;1783;-61
2022/06/10 20:39:37;;;;;;;;;;;;;;;22.38;49.01;96339.88;10441260;28;1902;-61
2022/06/10 20:44:37;;;;;;;;;;;;;;;22.38;48.83;96339.88;10462849;28;1747;-58
2022/06/10 20:49:38;;;;;;;;;;;;;;;22.37;48.62;96340.94;10451746;28;1754;-61
2022/06/10 20:54:39;;;;;;;;;;;;;;;22.36;48.90;96344.63;10463523;28;2175;-57
2022/06/10 20:59:40;;;;;;;;;;;;;;;22.36;48.81;96341.22;10475620;28;1979;-58
2022/06/10 21:10:05;;;;;;;;;;;;;;;22.33;48.94;96337.28;10484268;28;2014;-57
2022/06/10 21:15:06;;;;;;;;;;;;;;;22.32;48.76;96335.66;10470848;28;1948;-58
2022/06/10 21:20:15;;;;;;;;;;;;;;;22.33;49.13;96331.19;10456277;28;2002;-60
2022/06/10 21:25:20;;;;;;;;;;;;;;;22.32;48.94;96330.38;10463186;28;1956;-58
2022/06/10 21:30:21;;;;;;;;;;;;;;;22.30;49.32;96329.88;10476082;28;1876;-57
2022/06/10 21:35:25;;;;;;;;;;;;;;;22.29;48.96;96328.31;10475317;28;2077;-58
2022/06/10 21:40:25;;;;;;;;;;;;;;;22.29;49.19;96330.94;10451700;28;1930;-60
2022/06/10 21:45:28;;;;;;;;;;;;;;;22.28;49.08;96328.56;10466559;28;1967;-57
2022/06/10 21:50:35;;;;;;;;;;;;;;;22.26;49.16;96331.47;10486004;28;1960;-59
2022/06/10 21:55:36;;;;;;;;;;;;;;;22.26;49.59;96325.41;10462268;28;2025;-62
2022/06/10 22:00:40;;;;;;;;;;;;;;;22.26;49.28;96323.56;10478131;28;2013;-61
2022/06/10 22:05:42;;;;;;;;;;;;;;;22.26;49.16;96328.84;10458251;28;1975;-60
2022/06/10 22:10:43;;;;;;;;;;;;;;;22.25;48.90;96318.53;10476472;28;2540;-60
2022/06/10 22:15:43;;;;;;;;;;;;;;;22.24;48.85;96323.03;10468028;28;2018;-57
2022/06/10 22:20:43;;;;;;;;;;;;;;;22.24;49.00;96323.03;10447567;28;1829;-57
2022/06/10 22:25:45;;;;;;;;;;;;;;;22.24;49.13;96320.38;10447747;28;1955;-56
2022/06/10 22:30:47;;;;;;;;;;;;;;;22.24;48.88;96328.31;10447679;28;2052;-58
2022/06/10 22:35:48;;;;;;;;;;;;;;;22.24;49.14;96320.38;10452455;28;1897;-59
2022/06/10 22:40:49;;;;;;;;;;;;;;;22.22;48.96;96322.50;10443491;28;2023;-61
2022/06/10 22:45:51;;;;;;;;;;;;;;;22.24;49.01;96323.03;10489445;28;1929;-61
2022/06/10 22:50:52;;;;;;;;;;;;;;;22.22;48.79;96314.59;10465826;28;1995;-61
2022/06/10 22:55:52;;;;;;;;;;;;;;;22.23;48.89;96323.31;10459322;28;1980;-62
2022/06/10 23:00:53;;;;;;;;;;;;;;;22.23;48.70;96323.31;10475683;28;2028;-59
2022/06/10 23:11:13;;;;;;;;;;;;;;;22.23;48.89;96321.47;10462564;28;1948;-60
2022/06/10 23:16:14;;;;;;;;;;;;;;;22.22;49.04;96317.22;10456335;28;1992;-57
2022/06/10 23:21:15;;;;;;;;;;;;;;;22.23;48.99;96315.38;10482108;28;2011;-60
2022/06/10 23:26:21;;;;;;;;;;;;;;;22.21;49.02;96320.94;10452662;28;1904;-59
2022/06/10 23:31:25;;;;;;;;;;;;;;;22.22;48.97;96313.78;10472010;28;2083;-58
2022/06/10 23:36:27;;;;;;;;;;;;;;;22.23;48.73;96320.66;10476545;28;1913;-58
2022/06/10 23:41:27;;;;;;;;;;;;;;;22.23;48.92;96312.75;10466489;28;1990;-60
2022/06/10 23:51:51;;;;;;;;;;;;;;;22.22;49.04;96317.22;10471465;28;1891;-61
2022/06/10 23:56:53;;;;;;;;;;;;;;;22.22;49.20;96309.31;10478474;28;2058;-59
